• Join FlightAware (Why Join?)
  • Login
  • US Flag 
04:27PM EDT


 

Airport Tracker/Info


-or-


 

Live Flight TrackerFlight Track Log ✈ C-GDBS ✈ 12-Nov-2013 ✈ CYCK / XCM - CYKZ

Flight Track Log - Related Links

Times and Time Zones

All times are in EST time to prevent confusion due to time zone crossing. See the C-GDBS flight status page for this flight to view local times or setup timezone preferences in your user account.

Time Position Orientation Groundspeed Altitude Reporting Facility
EST Latitude Longitude Course Direction KTS MPH feet Rate Location/Type
07:33PM 42.3667 -81.9833 44° Northeast 170 196 5,000  Level Toronto Center
07:34PM 42.4000 -81.9167 56° Northeast 180 207 5,000 -60 Level Toronto Center
07:35PM 42.4500 -81.8500 45° Northeast 180 207 4,900  Descending Toronto Center
07:36PM 42.4989 -81.8332 44° Northeast  Level FlightAware Approximate
07:37PM 42.5309 -81.7915 44° Northeast  Level FlightAware Approximate
07:37PM 42.5014 -81.7822 44° Northeast 146 168 5,000  Level Cleveland Center
07:38PM 42.5581 -81.7440 44° Northeast  Level Estimated
07:38PM 42.5383 -81.7200 51° Northeast 175 201 5,000  Level Cleveland Center
07:39PM 42.5692 -81.6681 51° Northeast 175 201 5,000  Level Cleveland Center
07:40PM 42.5992 -81.6192 50° Northeast 172 198 5,100  Climbing Cleveland Center
07:41PM 42.6239 -81.5736 54° Northeast 173 199 5,100 -60 Level Cleveland Center
07:42PM 42.6672 -81.5253 39° Northeast 175 201 5,000 -60 Descending Cleveland Center
07:43PM 42.7022 -81.4786 44° Northeast 176 203 5,000  Level Cleveland Center
07:44PM 42.7442 -81.4439 31° Northeast 169 194 5,000  Level Cleveland Center
07:46PM 42.8000 -81.3833 39° Northeast 170 196 5,000  Level Toronto Center
07:47PM 42.8500 -81.3333 36° Northeast 170 196 5,000  Level Toronto Center
07:48PM 42.8833 -81.3167 20° North 170 196 5,000  Level Toronto Center
07:49PM 42.9167 -81.2667 48° Northeast 170 196 5,000  Level Toronto Center
07:50PM 42.9667 -81.2333 26° Northeast 170 196 5,000  Level Toronto Center
07:51PM 43.0000 -81.1833 48° Northeast 170 196 5,000  Level Toronto Center
07:52PM 43.0333 -81.1667 20° North 170 196 5,100  Climbing Toronto Center
07:53PM 43.0667 -81.1167 48° Northeast 170 196 5,000 -60 Descending Toronto Center
07:54PM 43.1000 -81.0667 48° Northeast 170 196 5,000  Level Toronto Center
07:55PM 43.1333 -81.0333 36° Northeast 170 196 5,000  Level Toronto Center
07:56PM 43.1667 -80.9833 48° Northeast 180 207 5,000  Level Toronto Center
07:57PM 43.2167 -80.9333 36° Northeast 170 196 5,000 -60 Level Toronto Center
07:58PM 43.2500 -80.9000 36° Northeast 170 196 4,900  Descending Toronto Center
07:59PM 43.2833 -80.8500 48° Northeast 170 196 5,100  Climbing Toronto Center
08:00PM 43.3333 -80.8000 36° Northeast 160 184 5,000  Descending Toronto Center
08:01PM 43.3667 -80.7833 20° North 170 196 5,100  Climbing Toronto Center
08:02PM 43.4000 -80.7333 47° Northeast 170 196 5,100  Level Toronto Center
08:03PM 43.4333 -80.6833 47° Northeast 170 196 5,100 -60 Level Toronto Center
08:04PM 43.4667 -80.6500 36° Northeast 170 196 5,000  Descending Toronto Center
08:05PM 43.5000 -80.6000 47° Northeast 170 196 5,100  Climbing Toronto Center
08:06PM 43.5333 -80.5500 47° Northeast 170 196 5,000 -120 Descending Toronto Center
08:07PM 43.5667 -80.5000 47° Northeast 170 196 4,900  Descending Toronto Center
08:08PM 43.6167 -80.4833 14° North 170 196 5,000  Climbing Toronto Center
08:09PM 43.6500 -80.4333 47° Northeast 170 196 5,000  Level Toronto Center
08:10PM 43.6833 -80.4000 36° Northeast 170 196 5,000  Level Toronto Center
08:11PM 43.7167 -80.3500 47° Northeast 170 196 5,000  Level Toronto Center
08:12PM 43.7500 -80.3000 47° Northeast 170 196 5,000  Level Toronto Center
08:13PM 43.7833 -80.2500 47° Northeast 170 196 5,000  Level Toronto Center
08:14PM 43.8167 -80.2167 36° Northeast 170 196 5,000 -180 Level Toronto Center
08:15PM 43.8500 -80.1667 47° Northeast 180 207 4,700 -420 Descending Toronto Center
08:16PM 43.8500 -80.0667 90° East 200 230 4,200 -540 Descending Toronto Center
08:17PM 43.8667 -80.0333 55° Northeast 190 219 3,700 -540 Descending Toronto Center
08:18PM 43.8833 -79.9500 74° East 190 219 3,200 -300 Descending Toronto Center
08:19PM 43.9167 -79.8833 55° Northeast 180 207 3,200 -120 Level Toronto Center
08:20PM 43.9333 -79.8167 71° East 170 196 3,000 -120 Descending Toronto Center
08:21PM 43.9333 -79.7500 90° East 180 207 3,000  Level Toronto Center
08:22PM 43.9500 -79.6833 71° East 180 207 3,000  Level Toronto Center
08:23PM 43.9667 -79.6167 71° East 180 207 3,000  Level Toronto Center
08:24PM 43.9833 -79.5667 65° Northeast 180 207 3,000  Level Toronto Center
08:25PM 43.9500 -79.5000 125° Southeast 190 219 3,000  Level Toronto Center
08:26PM 43.9167 -79.4500 133° Southeast 190 219 3,000 -300 Level Toronto Center
08:27PM 43.9000 -79.3833 109° East 180 207 2,500 -240 Descending Toronto Center
08:28PM 43.8667 -79.3333 133° Southeast 160 184 2,600 -480 Climbing Toronto Center
08:29PM 43.8333 -79.3167 160° South 140 161 1,600 -840 Descending Toronto Center
08:30PM 43.8333 -79.3333 270° West 110 127 1,000 -600 Descending Toronto Center